sensor_id;sensor_type;location;lat;lon;timestamp;pressure;altitude;pressure_sealevel;temperature;humidity
68807;BME280;55800;54.272;18.558;2022-10-24T00:02:25;100842.69;;;7.49;70.38
68807;BME280;55800;54.272;18.558;2022-10-24T00:04:54;100847.22;;;7.46;70.15
68807;BME280;55800;54.272;18.558;2022-10-24T00:07:24;100842.84;;;7.43;70.22
68807;BME280;55800;54.272;18.558;2022-10-24T00:09:53;100844.66;;;7.41;70.23
68807;BME280;55800;54.272;18.558;2022-10-24T00:12:22;100844.72;;;7.38;70.42
68807;BME280;55800;54.272;18.558;2022-10-24T00:14:52;100855.47;;;7.35;70.41
68807;BME280;55800;54.272;18.558;2022-10-24T00:17:22;100847.53;;;7.34;70.40
68807;BME280;55800;54.272;18.558;2022-10-24T00:19:52;100846.66;;;7.32;70.41
68807;BME280;55800;54.272;18.558;2022-10-24T00:22:21;100841.41;;;7.30;70.32
68807;BME280;55800;54.272;18.558;2022-10-24T00:24:51;100838.78;;;7.29;70.43
68807;BME280;55800;54.272;18.558;2022-10-24T00:27:20;100834.38;;;7.28;70.42
68807;BME280;55800;54.272;18.558;2022-10-24T00:29:50;100829.97;;;7.27;70.43
68807;BME280;55800;54.272;18.558;2022-10-24T00:32:19;100828.22;;;7.26;70.47
68807;BME280;55800;54.272;18.558;2022-10-24T00:34:50;100825.56;;;7.26;70.40
68807;BME280;55800;54.272;18.558;2022-10-24T00:37:19;100822.91;;;7.26;70.44
68807;BME280;55800;54.272;18.558;2022-10-24T00:39:49;100813.19;;;7.25;70.62
68807;BME280;55800;54.272;18.558;2022-10-24T00:42:18;100806.09;;;7.25;70.59
68807;BME280;55800;54.272;18.558;2022-10-24T00:44:51;100811.41;;;7.25;70.53
68807;BME280;55800;54.272;18.558;2022-10-24T00:47:22;100812.25;;;7.26;70.58
68807;BME280;55800;54.272;18.558;2022-10-24T00:49:57;100816.69;;;7.27;70.68
68807;BME280;55800;54.272;18.558;2022-10-24T00:52:34;100806.00;;;7.28;70.77
68807;BME280;55800;54.272;18.558;2022-10-24T00:55:05;100794.47;;;7.29;70.81
68807;BME280;55800;54.272;18.558;2022-10-24T00:57:39;100791.75;;;7.31;70.72
68807;BME280;55800;54.272;18.558;2022-10-24T01:00:15;100782.81;;;7.33;70.85
68807;BME280;55800;54.272;18.558;2022-10-24T01:02:45;100789.03;;;7.34;71.02
68807;BME280;55800;54.272;18.558;2022-10-24T01:05:17;100784.50;;;7.37;70.81
68807;BME280;55800;54.272;18.558;2022-10-24T01:07:53;100800.34;;;7.40;71.02
68807;BME280;55800;54.272;18.558;2022-10-24T01:10:34;100798.53;;;7.42;70.97
68807;BME280;55800;54.272;18.558;2022-10-24T01:13:14;100790.47;;;7.45;71.16
68807;BME280;55800;54.272;18.558;2022-10-24T01:15:49;100793.91;;;7.49;71.14
68807;BME280;55800;54.272;18.558;2022-10-24T01:18:23;100785.91;;;7.50;71.18
68807;BME280;55800;54.272;18.558;2022-10-24T01:21:07;100778.75;;;7.52;71.09
68807;BME280;55800;54.272;18.558;2022-10-24T01:24:09;100773.34;;;7.55;71.20
68807;BME280;55800;54.272;18.558;2022-10-24T01:30:08;100767.91;;;7.60;71.17
68807;BME280;55800;54.272;18.558;2022-10-24T01:32:45;100764.28;;;7.62;71.33
68807;BME280;55800;54.272;18.558;2022-10-24T01:35:27;100766.88;;;7.65;71.35
68807;BME280;55800;54.272;18.558;2022-10-24T01:38:10;100757.84;;;7.71;71.45
68807;BME280;55800;54.272;18.558;2022-10-24T01:40:48;100741.75;;;7.75;71.73
68807;BME280;55800;54.272;18.558;2022-10-24T01:43:22;100754.88;;;7.81;71.85
68807;BME280;55800;54.272;18.558;2022-10-24T01:45:58;100750.25;;;7.88;71.83
68807;BME280;55800;54.272;18.558;2022-10-24T01:48:32;100741.13;;;7.97;71.95
68807;BME280;55800;54.272;18.558;2022-10-24T01:51:03;100740.03;;;8.04;72.11
68807;BME280;55800;54.272;18.558;2022-10-24T01:53:35;100723.88;;;8.10;72.12
68807;BME280;55800;54.272;18.558;2022-10-24T01:56:06;100716.53;;;8.18;72.16
68807;BME280;55800;54.272;18.558;2022-10-24T01:58:36;100719.84;;;8.26;72.30
68807;BME280;55800;54.272;18.558;2022-10-24T02:01:11;100730.31;;;8.32;72.29
68807;BME280;55800;54.272;18.558;2022-10-24T02:03:44;100731.00;;;8.38;72.41
68807;BME280;55800;54.272;18.558;2022-10-24T02:06:18;100722.88;;;8.43;72.50
68807;BME280;55800;54.272;18.558;2022-10-24T02:08:53;100722.66;;;8.49;72.38
68807;BME280;55800;54.272;18.558;2022-10-24T02:11:24;100718.97;;;8.53;72.43
68807;BME280;55800;54.272;18.558;2022-10-24T02:13:54;100709.97;;;8.57;72.44
68807;BME280;55800;54.272;18.558;2022-10-24T02:16:27;100696.50;;;8.61;72.53
68807;BME280;55800;54.272;18.558;2022-10-24T02:18:58;100693.69;;;8.66;72.68
68807;BME280;55800;54.272;18.558;2022-10-24T02:21:32;100689.13;;;8.70;72.70
68807;BME280;55800;54.272;18.558;2022-10-24T02:24:08;100689.84;;;8.75;72.72
68807;BME280;55800;54.272;18.558;2022-10-24T02:26:48;100688.88;;;8.77;72.53
68807;BME280;55800;54.272;18.558;2022-10-24T02:29:23;100690.53;;;8.81;72.76
68807;BME280;55800;54.272;18.558;2022-10-24T02:31:56;100688.59;;;8.85;72.77
68807;BME280;55800;54.272;18.558;2022-10-24T02:34:29;100687.63;;;8.87;72.82
68807;BME280;55800;54.272;18.558;2022-10-24T02:37:00;100703.53;;;8.90;72.76
68807;BME280;55800;54.272;18.558;2022-10-24T02:39:31;100702.59;;;8.93;72.93
68807;BME280;55800;54.272;18.558;2022-10-24T02:42:04;100701.53;;;8.97;72.86
68807;BME280;55800;54.272;18.558;2022-10-24T02:44:36;100697.88;;;8.99;72.89
68807;BME280;55800;54.272;18.558;2022-10-24T02:47:07;100692.44;;;9.02;73.01
68807;BME280;55800;54.272;18.558;2022-10-24T02:49:40;100687.88;;;9.06;72.91
68807;BME280;55800;54.272;18.558;2022-10-24T02:52:09;100688.66;;;9.09;73.08
68807;BME280;55800;54.272;18.558;2022-10-24T02:54:39;100690.28;;;9.13;72.99
68807;BME280;55800;54.272;18.558;2022-10-24T02:57:08;100679.50;;;9.16;73.19
68807;BME280;55800;54.272;18.558;2022-10-24T02:59:40;100684.75;;;9.19;73.15
68807;BME280;55800;54.272;18.558;2022-10-24T03:02:11;100684.53;;;9.25;73.25
68807;BME280;55800;54.272;18.558;2022-10-24T03:04:40;100682.66;;;9.27;73.16
68807;BME280;55800;54.272;18.558;2022-10-24T03:07:10;100689.63;;;9.31;73.22
68807;BME280;55800;54.272;18.558;2022-10-24T03:09:39;100678.88;;;9.34;73.20
68807;BME280;55800;54.272;18.558;2022-10-24T03:12:09;100667.16;;;9.38;73.22
68807;BME280;55800;54.272;18.558;2022-10-24T03:14:41;100679.47;;;9.42;73.26
68807;BME280;55800;54.272;18.558;2022-10-24T03:17:12;100683.81;;;9.45;73.29
68807;BME280;55800;54.272;18.558;2022-10-24T03:19:41;100672.97;;;9.50;73.34
68807;BME280;55800;54.272;18.558;2022-10-24T03:22:11;100667.50;;;9.53;73.36
68807;BME280;55800;54.272;18.558;2022-10-24T03:24:41;100662.06;;;9.56;73.39
68807;BME280;55800;54.272;18.558;2022-10-24T03:27:22;100659.34;;;9.57;73.33
68807;BME280;55800;54.272;18.558;2022-10-24T03:29:51;100656.50;;;9.62;73.40
68807;BME280;55800;54.272;18.558;2022-10-24T03:32:22;100649.31;;;9.64;73.37
68807;BME280;55800;54.272;18.558;2022-10-24T03:34:56;100654.53;;;9.67;73.29
68807;BME280;55800;54.272;18.558;2022-10-24T03:37:26;100638.38;;;9.70;73.35
68807;BME280;55800;54.272;18.558;2022-10-24T03:39:55;100641.03;;;9.71;73.37
68807;BME280;55800;54.272;18.558;2022-10-24T03:42:25;100633.75;;;9.75;73.35
68807;BME280;55800;54.272;18.558;2022-10-24T03:44:54;100630.94;;;9.78;73.37
68807;BME280;55800;54.272;18.558;2022-10-24T03:47:25;100629.09;;;9.80;73.32
68807;BME280;55800;54.272;18.558;2022-10-24T03:49:54;100620.09;;;9.82;73.40
68807;BME280;55800;54.272;18.558;2022-10-24T03:52:23;100620.91;;;9.84;73.32
68807;BME280;55800;54.272;18.558;2022-10-24T03:54:52;100616.44;;;9.85;73.35
68807;BME280;55800;54.272;18.558;2022-10-24T03:57:22;100606.50;;;9.88;73.46
68807;BME280;55800;54.272;18.558;2022-10-24T03:59:51;100611.81;;;9.90;73.39
68807;BME280;55800;54.272;18.558;2022-10-24T04:02:20;100617.97;;;9.92;73.50
68807;BME280;55800;54.272;18.558;2022-10-24T04:04:51;100619.69;;;9.93;73.39
68807;BME280;55800;54.272;18.558;2022-10-24T04:07:21;100623.16;;;9.95;73.43
68807;BME280;55800;54.272;18.558;2022-10-24T04:09:50;100631.13;;;9.96;73.37
68807;BME280;55800;54.272;18.558;2022-10-24T04:12:19;100639.09;;;9.98;73.39
68807;BME280;55800;54.272;18.558;2022-10-24T04:14:49;100635.47;;;9.99;73.38
68807;BME280;55800;54.272;18.558;2022-10-24T04:17:18;100642.56;;;10.00;73.41
68807;BME280;55800;54.272;18.558;2022-10-24T04:19:47;100622.06;;;10.00;73.46
68807;BME280;55800;54.272;18.558;2022-10-24T04:22:18;100630.00;;;10.02;73.43
68807;BME280;55800;54.272;18.558;2022-10-24T04:24:52;100631.78;;;10.03;73.35
68807;BME280;55800;54.272;18.558;2022-10-24T04:27:22;100626.34;;;10.04;73.41
68807;BME280;55800;54.272;18.558;2022-10-24T04:29:51;100613.00;;;10.04;73.32
68807;BME280;55800;54.272;18.558;2022-10-24T04:32:21;100614.72;;;10.05;73.40
68807;BME280;55800;54.272;18.558;2022-10-24T04:34:50;100616.47;;;10.06;73.40
68807;BME280;55800;54.272;18.558;2022-10-24T04:37:20;100623.63;;;10.06;73.42
68807;BME280;55800;54.272;18.558;2022-10-24T04:39:50;100603.06;;;10.08;73.49
68807;BME280;55800;54.272;18.558;2022-10-24T04:42:20;100599.47;;;10.09;73.26
68807;BME280;55800;54.272;18.558;2022-10-24T04:44:50;100596.75;;;10.10;73.38
68807;BME280;55800;54.272;18.558;2022-10-24T04:47:19;100605.66;;;10.11;73.45
68807;BME280;55800;54.272;18.558;2022-10-24T04:49:48;100601.13;;;10.13;73.38
68807;BME280;55800;54.272;18.558;2022-10-24T04:52:17;100606.47;;;10.13;73.44
68807;BME280;55800;54.272;18.558;2022-10-24T04:54:48;100589.47;;;10.14;73.39
68807;BME280;55800;54.272;18.558;2022-10-24T04:57:18;100592.13;;;10.15;73.52
68807;BME280;55800;54.272;18.558;2022-10-24T04:59:47;100599.09;;;10.18;73.51
68807;BME280;55800;54.272;18.558;2022-10-24T05:02:16;100599.09;;;10.18;73.51
68807;BME280;55800;54.272;18.558;2022-10-24T05:04:46;100600.88;;;10.19;73.39
68807;BME280;55800;54.272;18.558;2022-10-24T05:07:15;100599.00;;;10.21;73.40
68807;BME280;55800;54.272;18.558;2022-10-24T05:09:49;100611.44;;;10.22;73.43
68807;BME280;55800;54.272;18.558;2022-10-24T05:12:18;100607.81;;;10.23;73.50
68807;BME280;55800;54.272;18.558;2022-10-24T05:14:47;100605.16;;;10.23;73.52
68807;BME280;55800;54.272;18.558;2022-10-24T05:17:17;100616.66;;;10.25;73.42
68807;BME280;55800;54.272;18.558;2022-10-24T05:19:46;100613.97;;;10.25;73.52
68807;BME280;55800;54.272;18.558;2022-10-24T05:22:16;100622.78;;;10.27;73.32
68807;BME280;55800;54.272;18.558;2022-10-24T05:24:45;100623.66;;;10.28;73.56
68807;BME280;55800;54.272;18.558;2022-10-24T05:27:16;100622.72;;;10.29;73.62
68807;BME280;55800;54.272;18.558;2022-10-24T05:29:51;100623.59;;;10.29;73.45
68807;BME280;55800;54.272;18.558;2022-10-24T05:32:23;100638.63;;;10.32;73.42
68807;BME280;55800;54.272;18.558;2022-10-24T05:34:52;100632.41;;;10.31;73.52
68807;BME280;55800;54.272;18.558;2022-10-24T05:37:22;100635.91;;;10.33;73.42
68807;BME280;55800;54.272;18.558;2022-10-24T05:39:51;100630.56;;;10.33;73.48
68807;BME280;55800;54.272;18.558;2022-10-24T05:42:22;100633.22;;;10.33;73.47
68807;BME280;55800;54.272;18.558;2022-10-24T05:44:51;100633.19;;;10.35;73.49
68807;BME280;55800;54.272;18.558;2022-10-24T05:47:20;100632.25;;;10.36;73.48
68807;BME280;55800;54.272;18.558;2022-10-24T05:49:55;100624.16;;;10.37;73.54
68807;BME280;55800;54.272;18.558;2022-10-24T05:52:24;100623.22;;;10.38;73.52
68807;BME280;55800;54.272;18.558;2022-10-24T05:54:53;100623.22;;;10.38;73.48
68807;BME280;55800;54.272;18.558;2022-10-24T05:57:36;100620.50;;;10.40;73.58
68807;BME280;55800;54.272;18.558;2022-10-24T06:00:10;100615.09;;;10.41;73.45
68807;BME280;55800;54.272;18.558;2022-10-24T06:02:41;100614.16;;;10.42;73.55
68807;BME280;55800;54.272;18.558;2022-10-24T06:05:12;100596.25;;;10.44;73.48
68807;BME280;55800;54.272;18.558;2022-10-24T06:07:41;100598.00;;;10.45;73.57
68807;BME280;55800;54.272;18.558;2022-10-24T06:10:12;100596.13;;;10.47;73.71
68807;BME280;55800;54.272;18.558;2022-10-24T06:12:43;100594.31;;;10.48;73.70
68807;BME280;55800;54.272;18.558;2022-10-24T06:15:13;100589.75;;;10.50;73.68
68807;BME280;55800;54.272;18.558;2022-10-24T06:17:42;100597.75;;;10.51;73.54
68807;BME280;55800;54.272;18.558;2022-10-24T06:20:12;100608.38;;;10.53;73.75
68807;BME280;55800;54.272;18.558;2022-10-24T06:22:41;100602.94;;;10.54;73.78
68807;BME280;55800;54.272;18.558;2022-10-24T06:25:13;100589.53;;;10.56;73.78
68807;BME280;55800;54.272;18.558;2022-10-24T06:27:44;100583.22;;;10.57;73.78
68807;BME280;55800;54.272;18.558;2022-10-24T06:30:14;100586.72;;;10.59;73.77
68807;BME280;55800;54.272;18.558;2022-10-24T06:32:43;100578.63;;;10.60;73.80
68807;BME280;55800;54.272;18.558;2022-10-24T06:35:13;100577.69;;;10.61;73.81
68807;BME280;55800;54.272;18.558;2022-10-24T06:37:42;100566.94;;;10.63;73.80
68807;BME280;55800;54.272;18.558;2022-10-24T06:40:16;100574.03;;;10.64;73.77
68807;BME280;55800;54.272;18.558;2022-10-24T06:42:46;100556.13;;;10.66;73.80
68807;BME280;55800;54.272;18.558;2022-10-24T06:45:17;100560.50;;;10.67;73.93
68807;BME280;55800;54.272;18.558;2022-10-24T06:47:48;100553.28;;;10.69;73.84
68807;BME280;55800;54.272;18.558;2022-10-24T06:50:21;100562.16;;;10.71;73.94
68807;BME280;55800;54.272;18.558;2022-10-24T06:52:50;100559.41;;;10.72;73.97
68807;BME280;55800;54.272;18.558;2022-10-24T06:55:20;100561.13;;;10.73;73.86
68807;BME280;55800;54.272;18.558;2022-10-24T06:57:52;100567.25;;;10.75;74.03
68807;BME280;55800;54.272;18.558;2022-10-24T07:00:21;100569.03;;;10.76;73.88
68807;BME280;55800;54.272;18.558;2022-10-24T07:02:51;100569.81;;;10.78;74.04
68807;BME280;55800;54.272;18.558;2022-10-24T07:05:20;100564.34;;;10.81;73.89
68807;BME280;55800;54.272;18.558;2022-10-24T07:07:49;100565.19;;;10.82;74.06
68807;BME280;55800;54.272;18.558;2022-10-24T07:10:19;100574.03;;;10.84;73.98
68807;BME280;55800;54.272;18.558;2022-10-24T07:12:49;100570.44;;;10.85;73.89
68807;BME280;55800;54.272;18.558;2022-10-24T07:15:19;100578.38;;;10.86;74.13
68807;BME280;55800;54.272;18.558;2022-10-24T07:17:48;100579.19;;;10.88;74.10
68807;BME280;55800;54.272;18.558;2022-10-24T07:20:18;100574.63;;;10.90;74.02
68807;BME280;55800;54.272;18.558;2022-10-24T07:22:47;100574.50;;;10.93;74.09
68807;BME280;55800;54.272;18.558;2022-10-24T07:25:17;100578.06;;;10.94;74.08
68807;BME280;55800;54.272;18.558;2022-10-24T07:27:46;100594.84;;;10.97;74.10
68807;BME280;55800;54.272;18.558;2022-10-24T07:30:21;100603.66;;;10.99;74.15
68807;BME280;55800;54.272;18.558;2022-10-24T07:32:50;100615.16;;;11.02;74.16
68807;BME280;55800;54.272;18.558;2022-10-24T07:35:20;100616.91;;;11.03;74.26
68807;BME280;55800;54.272;18.558;2022-10-24T07:37:50;100605.19;;;11.05;74.31
68807;BME280;55800;54.272;18.558;2022-10-24T07:40:20;100610.50;;;11.07;74.24
68807;BME280;55800;54.272;18.558;2022-10-24T07:42:50;100607.66;;;11.10;74.25
68807;BME280;55800;54.272;18.558;2022-10-24T07:45:21;100608.47;;;11.12;74.19
68807;BME280;55800;54.272;18.558;2022-10-24T07:47:50;100615.50;;;11.14;74.19
68807;BME280;55800;54.272;18.558;2022-10-24T07:50:21;100616.28;;;11.16;74.28
68807;BME280;55800;54.272;18.558;2022-10-24T07:52:50;100607.34;;;11.17;74.21
68807;BME280;55800;54.272;18.558;2022-10-24T07:55:19;100598.28;;;11.20;74.26
68807;BME280;55800;54.272;18.558;2022-10-24T07:57:50;100596.44;;;11.22;74.37
68807;BME280;55800;54.272;18.558;2022-10-24T08:00:21;100602.63;;;11.22;74.24
68807;BME280;55800;54.272;18.558;2022-10-24T08:02:51;100598.94;;;11.25;74.46
68807;BME280;55800;54.272;18.558;2022-10-24T08:05:20;100596.16;;;11.28;74.40
68807;BME280;55800;54.272;18.558;2022-10-24T08:07:50;100592.53;;;11.29;74.45
68807;BME280;55800;54.272;18.558;2022-10-24T08:10:32;100582.56;;;11.32;74.53
68807;BME280;55800;54.272;18.558;2022-10-24T08:13:01;100589.56;;;11.35;74.51
68807;BME280;55800;54.272;18.558;2022-10-24T08:15:33;100593.00;;;11.38;74.60
68807;BME280;55800;54.272;18.558;2022-10-24T08:18:02;100579.53;;;11.40;74.59
68807;BME280;55800;54.272;18.558;2022-10-24T08:20:32;100581.13;;;11.44;74.55
68807;BME280;55800;54.272;18.558;2022-10-24T08:23:01;100579.25;;;11.46;74.62
68807;BME280;55800;54.272;18.558;2022-10-24T08:25:31;100569.31;;;11.48;74.61
68807;BME280;55800;54.272;18.558;2022-10-24T08:28:00;100567.44;;;11.50;74.64
68807;BME280;55800;54.272;18.558;2022-10-24T08:30:36;100556.69;;;11.51;74.56
68807;BME280;55800;54.272;18.558;2022-10-24T08:33:05;100568.13;;;11.55;74.64
68807;BME280;55800;54.272;18.558;2022-10-24T08:35:34;100563.56;;;11.57;74.68
68807;BME280;55800;54.272;18.558;2022-10-24T08:38:04;100567.03;;;11.59;74.74
68807;BME280;55800;54.272;18.558;2022-10-24T08:40:33;100577.59;;;11.62;74.70
68807;BME280;55800;54.272;18.558;2022-10-24T08:43:02;100578.41;;;11.64;74.70
68807;BME280;55800;54.272;18.558;2022-10-24T08:45:38;100578.28;;;11.67;74.89
68807;BME280;55800;54.272;18.558;2022-10-24T08:48:16;100571.78;;;11.72;74.85
68807;BME280;55800;54.272;18.558;2022-10-24T08:50:50;100571.50;;;11.79;74.79
68807;BME280;55800;54.272;18.558;2022-10-24T08:53:24;100562.44;;;11.81;74.78
68807;BME280;55800;54.272;18.558;2022-10-24T08:55:57;100568.44;;;11.86;74.89
68807;BME280;55800;54.272;18.558;2022-10-24T08:58:30;100559.31;;;11.90;75.01
68807;BME280;55800;54.272;18.558;2022-10-24T09:01:10;100571.59;;;11.94;75.06
68807;BME280;55800;54.272;18.558;2022-10-24T09:03:43;100562.47;;;11.98;75.03
68807;BME280;55800;54.272;18.558;2022-10-24T09:06:26;100576.53;;;12.03;75.11
68807;BME280;55800;54.272;18.558;2022-10-24T09:08:57;100583.47;;;12.07;75.18
68807;BME280;55800;54.272;18.558;2022-10-24T09:11:35;100576.97;;;12.13;75.10
68807;BME280;55800;54.272;18.558;2022-10-24T09:14:13;100583.03;;;12.16;75.25
68807;BME280;55800;54.272;18.558;2022-10-24T09:16:47;100577.53;;;12.19;75.24
68807;BME280;55800;54.272;18.558;2022-10-24T09:19:20;100575.47;;;12.24;75.22
68807;BME280;55800;54.272;18.558;2022-10-24T09:21:51;100568.22;;;12.26;75.19
68807;BME280;55800;54.272;18.558;2022-10-24T09:24:32;100575.16;;;12.30;75.32
68807;BME280;55800;54.272;18.558;2022-10-24T09:27:09;100586.53;;;12.35;75.28
68807;BME280;55800;54.272;18.558;2022-10-24T09:29:39;100572.97;;;12.38;75.41
68807;BME280;55800;54.272;18.558;2022-10-24T09:32:16;100592.47;;;12.42;75.26
68807;BME280;55800;54.272;18.558;2022-10-24T09:34:46;100605.72;;;12.45;75.39
68807;BME280;55800;54.272;18.558;2022-10-24T09:37:32;100610.06;;;12.47;75.40
68807;BME280;55800;54.272;18.558;2022-10-24T09:40:18;100599.19;;;12.50;75.37
68807;BME280;55800;54.272;18.558;2022-10-24T09:42:58;100598.09;;;12.54;75.40
68807;BME280;55800;54.272;18.558;2022-10-24T09:45:32;100598.88;;;12.57;75.37
68807;BME280;55800;54.272;18.558;2022-10-24T09:48:13;100603.22;;;12.59;75.37
68807;BME280;55800;54.272;18.558;2022-10-24T09:50:45;100608.38;;;12.64;75.47
68807;BME280;55800;54.272;18.558;2022-10-24T09:53:25;100600.31;;;12.64;75.39
68807;BME280;55800;54.272;18.558;2022-10-24T09:55:57;100601.91;;;12.68;75.46
68807;BME280;55800;54.272;18.558;2022-10-24T09:58:29;100605.38;;;12.70;75.47
68807;BME280;55800;54.272;18.558;2022-10-24T10:01:03;100605.19;;;12.73;75.37
68807;BME280;55800;54.272;18.558;2022-10-24T10:03:35;100606.84;;;12.75;75.42
68807;BME280;55800;54.272;18.558;2022-10-24T10:06:15;100604.91;;;12.79;75.37
68807;BME280;55800;54.272;18.558;2022-10-24T10:08:49;100615.47;;;12.82;75.56
68807;BME280;55800;54.272;18.558;2022-10-24T10:11:25;100604.50;;;12.86;75.51
68807;BME280;55800;54.272;18.558;2022-10-24T10:13:59;100603.41;;;12.90;75.67
68807;BME280;55800;54.272;18.558;2022-10-24T10:16:31;100593.34;;;12.94;75.62
68807;BME280;55800;54.272;18.558;2022-10-24T10:19:12;100580.50;;;13.00;75.67
68807;BME280;55800;54.272;18.558;2022-10-24T10:21:54;100568.63;;;13.06;75.85
68807;BME280;55800;54.272;18.558;2022-10-24T10:24:27;100574.53;;;13.12;75.89
68807;BME280;55800;54.272;18.558;2022-10-24T10:30:23;100571.72;;;13.31;76.19
68807;BME280;55800;54.272;18.558;2022-10-24T10:33:06;100562.41;;;13.38;76.29
68807;BME280;55800;54.272;18.558;2022-10-24T10:35:48;100548.53;;;13.46;76.18
68807;BME280;55800;54.272;18.558;2022-10-24T10:38:35;100554.44;;;13.52;76.16
68807;BME280;55800;54.272;18.558;2022-10-24T10:41:13;100560.34;;;13.59;76.20
68807;BME280;55800;54.272;18.558;2022-10-24T10:43:48;100546.50;;;13.66;76.44
68807;BME280;55800;54.272;18.558;2022-10-24T10:46:28;100552.28;;;13.74;76.47
68807;BME280;55800;54.272;18.558;2022-10-24T10:49:08;100554.66;;;13.80;76.34
68807;BME280;55800;54.272;18.558;2022-10-24T10:51:46;100555.16;;;13.87;76.53
68807;BME280;55800;54.272;18.558;2022-10-24T10:54:30;100542.25;;;13.93;76.35
68807;BME280;55800;54.272;18.558;2022-10-24T10:57:07;100535.66;;;13.99;76.46
68807;BME280;55800;54.272;18.558;2022-10-24T10:59:46;100527.25;;;14.05;76.44
68807;BME280;55800;54.272;18.558;2022-10-24T11:02:37;100522.38;;;14.12;76.45
68807;BME280;55800;54.272;18.558;2022-10-24T11:05:23;100527.41;;;14.18;76.65
68807;BME280;55800;54.272;18.558;2022-10-24T11:08:02;100526.09;;;14.25;76.55
68807;BME280;55800;54.272;18.558;2022-10-24T11:10:38;100519.44;;;14.32;76.62
68807;BME280;55800;54.272;18.558;2022-10-24T11:13:14;100513.72;;;14.38;76.71
68807;BME280;55800;54.272;18.558;2022-10-24T11:15:47;100502.59;;;14.44;76.59
68807;BME280;55800;54.272;18.558;2022-10-24T11:18:21;100512.09;;;14.49;76.60
68807;BME280;55800;54.272;18.558;2022-10-24T11:21:01;100516.22;;;14.55;76.73
68807;BME280;55800;54.272;18.558;2022-10-24T11:23:38;100523.09;;;14.60;76.80
68807;BME280;55800;54.272;18.558;2022-10-24T11:26:17;100525.41;;;14.66;76.97
68807;BME280;55800;54.272;18.558;2022-10-24T11:28:53;100533.13;;;14.72;76.75
68807;BME280;55800;54.272;18.558;2022-10-24T11:31:27;100529.22;;;14.78;76.95
68807;BME280;55800;54.272;18.558;2022-10-24T11:34:02;100532.47;;;14.83;76.57
68807;BME280;55800;54.272;18.558;2022-10-24T11:36:38;100536.69;;;14.87;76.77
68807;BME280;55800;54.272;18.558;2022-10-24T11:39:16;100528.44;;;14.90;76.63
68807;BME280;55800;54.272;18.558;2022-10-24T11:41:51;100531.81;;;14.94;76.37
68807;BME280;55800;54.272;18.558;2022-10-24T11:44:38;100522.69;;;14.96;76.36
68807;BME280;55800;54.272;18.558;2022-10-24T11:47:29;100527.03;;;14.99;76.53
68807;BME280;55800;54.272;18.558;2022-10-24T11:50:09;100525.97;;;15.01;76.43
68807;BME280;55800;54.272;18.558;2022-10-24T11:52:43;100523.19;;;15.03;76.60
68807;BME280;55800;54.272;18.558;2022-10-24T11:55:20;100520.28;;;15.06;76.31
68807;BME280;55800;54.272;18.558;2022-10-24T11:57:53;100526.47;;;15.08;76.40
68807;BME280;55800;54.272;18.558;2022-10-24T12:00:24;100531.84;;;15.08;76.44
68807;BME280;55800;54.272;18.558;2022-10-24T12:03:27;100513.94;;;15.07;76.10
68807;BME280;55800;54.272;18.558;2022-10-24T12:09:16;100509.81;;;15.01;76.04
68807;BME280;55800;54.272;18.558;2022-10-24T12:12:06;100499.22;;;14.98;75.94
68807;BME280;55800;54.272;18.558;2022-10-24T12:15:01;100497.69;;;14.94;76.01
68807;BME280;55800;54.272;18.558;2022-10-24T12:17:44;100507.78;;;14.91;75.85
68807;BME280;55800;54.272;18.558;2022-10-24T12:20:19;100513.34;;;14.88;75.77
68807;BME280;55800;54.272;18.558;2022-10-24T12:22:50;100503.63;;;14.85;75.77
68807;BME280;55800;54.272;18.558;2022-10-24T12:25:27;100494.00;;;14.81;75.50
68807;BME280;55800;54.272;18.558;2022-10-24T12:28:01;100484.41;;;14.77;75.62
68807;BME280;55800;54.272;18.558;2022-10-24T12:30:33;100475.72;;;14.72;75.65
68807;BME280;55800;54.272;18.558;2022-10-24T12:33:21;100475.81;;;14.70;75.26
68807;BME280;55800;54.272;18.558;2022-10-24T12:35:52;100472.47;;;14.67;75.36
68807;BME280;55800;54.272;18.558;2022-10-24T12:41:40;100478.22;;;14.61;75.39
68807;BME280;55800;54.272;18.558;2022-10-24T12:44:35;100482.84;;;14.59;75.63
68807;BME280;55800;54.272;18.558;2022-10-24T12:47:25;100471.31;;;14.57;75.53
68807;BME280;55800;54.272;18.558;2022-10-24T12:49:56;100474.94;;;14.56;75.65
68807;BME280;55800;54.272;18.558;2022-10-24T12:52:49;100465.13;;;14.55;75.61
68807;BME280;55800;54.272;18.558;2022-10-24T12:55:31;100480.41;;;14.54;75.37
68807;BME280;55800;54.272;18.558;2022-10-24T12:58:24;100478.78;;;14.52;75.55
68807;BME280;55800;54.272;18.558;2022-10-24T13:00:58;100486.94;;;14.50;75.56
68807;BME280;55800;54.272;18.558;2022-10-24T13:03:52;100491.44;;;14.50;75.60
68807;BME280;55800;54.272;18.558;2022-10-24T13:06:27;100493.38;;;14.48;75.46
68807;BME280;55800;54.272;18.558;2022-10-24T13:09:21;100490.56;;;14.49;75.46
68807;BME280;55800;54.272;18.558;2022-10-24T13:12:06;100496.94;;;14.48;75.58
68807;BME280;55800;54.272;18.558;2022-10-24T13:14:54;100497.00;;;14.47;75.50
68807;BME280;55800;54.272;18.558;2022-10-24T13:17:35;100493.38;;;14.48;75.61
68807;BME280;55800;54.272;18.558;2022-10-24T13:20:16;100488.94;;;14.47;75.42
68807;BME280;55800;54.272;18.558;2022-10-24T13:22:47;100495.28;;;14.46;75.64
68807;BME280;55800;54.272;18.558;2022-10-24T13:25:20;100491.91;;;14.42;75.44
68807;BME280;55800;54.272;18.558;2022-10-24T13:31:40;100480.34;;;14.40;75.57
68807;BME280;55800;54.272;18.558;2022-10-24T13:34:26;100476.06;;;14.38;75.32